Stations météo

Publicité
Salsburgh, Grande-Bretagne (99024): Température de l'air & dewpoint: 20.09.2017 12:00:00 - 26.09.2017 12:00:00 (BST)Salsburgh, Grande-Bretagne (99024): Vitesse du vent & gusts: 20.09.2017 12:00:00 - 26.09.2017 12:00:00 (BST)Salsburgh, Grande-Bretagne (99024): Direction du vent: 20.09.2017 12:00:00 - 26.09.2017 12:00:00 (BST)Salsburgh, Grande-Bretagne (99024): Quantités de précipitations: 20.09.2017 12:00:00 - 26.09.2017 12:00:00 (BST)
Date & Time tt [°C] td [°C] ff [km/h] ff [knt] fx [km/h] fx [knt] dd rr [mm]
26.09.2017 12:00:00 - - - - - - - -
26.09.2017 11:00:00 13,6 12,9 9 5 - - SE 0,0
26.09.2017 10:00:00 13,0 12,5 13 7 - - E 0,0
26.09.2017 09:00:00 12,8 12,1 11 6 - - E 0,0
26.09.2017 08:00:00 12,4 11,8 11 6 - - ESE 0,0
26.09.2017 07:00:00 12,3 11,9 13 7 - - ESE 0,0
26.09.2017 06:00:00 11,8 11,4 11 6 - - ESE 0,0
26.09.2017 05:00:00 11,2 10,9 16 9 - - ESE 0,0
26.09.2017 04:00:00 12,3 11,8 9 5 - - SE 0,0
26.09.2017 03:00:00 12,4 11,9 9 5 - - SE 0,0
26.09.2017 02:00:00 12,3 11,6 9 5 - - SSE 0,0
26.09.2017 01:00:00 12,0 11,5 11 6 - - ESE 0,0
26.09.2017 00:00:00 11,6 11,3 11 6 - - SE 0,0
25.09.2017 23:00:00 11,5 11,1 13 7 - - SE 0,0
25.09.2017 22:00:00 11,5 11,5 13 7 - - E 0,0
25.09.2017 21:00:00 11,9 11,7 16 9 - - E 0,0
25.09.2017 20:00:00 12,5 11,9 16 9 - - E 0,0
25.09.2017 19:00:00 13,1 12,5 11 6 - - E 0,0
25.09.2017 18:00:00 15,2 13,2 9 5 - - E 0,0
25.09.2017 17:00:00 15,5 12,9 11 6 - - E 0,0
25.09.2017 16:00:00 15,5 13,5 11 6 - - NE 0,0
25.09.2017 15:00:00 15,6 12,4 2 1 - - W 0,0
25.09.2017 14:00:00 14,5 12,5 2 1 - - W 0,0
25.09.2017 13:00:00 13,9 13,0 5 3 - - SW 0,0
25.09.2017 12:00:00 13,4 13,4 8 4 - - SSW 0,2
25.09.2017 11:00:00 12,8 12,8 8 4 - - S 0,0
25.09.2017 10:00:00 12,6 12,6 5 3 - - ESE 0,0
25.09.2017 09:00:00 12,1 12,1 11 6 - - E 0,0
25.09.2017 08:00:00 12,0 12,0 11 6 - - E 0,0
25.09.2017 07:00:00 11,8 11,8 11 6 - - E 0,0
25.09.2017 06:00:00 11,8 11,8 11 6 - - E 0,0
25.09.2017 05:00:00 12,1 12,1 11 6 - - E 0,0
25.09.2017 04:00:00 12,1 12,1 11 6 - - E 0,0
25.09.2017 03:00:00 12,1 12,1 8 4 - - ESE 0,6
25.09.2017 02:00:00 12,3 12,3 5 3 - - ESE 0,0
25.09.2017 01:00:00 12,1 12,1 8 4 - - ESE 0,0
25.09.2017 00:00:00 12,2 12,1 8 4 - - SSE 0,2
24.09.2017 23:00:00 12,3 12,3 9 5 - - SSE 0,2
24.09.2017 22:00:00 12,1 12,1 8 4 - - SE 0,2
24.09.2017 21:00:00 12,0 11,9 11 6 - - E 1,0
24.09.2017 20:00:00 12,0 12,0 9 5 - - ESE 1,4
24.09.2017 19:00:00 12,2 12,0 9 5 - - E 0,0
24.09.2017 18:00:00 12,4 12,0 5 3 - - ESE 1,6
24.09.2017 17:00:00 12,4 11,7 5 3 - - SSW 1,2
24.09.2017 16:00:00 13,4 11,4 5 3 - - SE 0,0
24.09.2017 15:00:00 13,6 10,9 5 3 - - ESE 0,2
24.09.2017 14:00:00 12,9 11,0 13 7 - - SSE 0,2
24.09.2017 13:00:00 12,9 10,3 16 9 - - SSE 0,0
24.09.2017 12:00:00 12,7 9,8 24 13 - - S 0,0
24.09.2017 11:00:00 12,5 9,5 21 11 - - S 0,0
24.09.2017 10:00:00 12,4 9,0 21 11 - - SSE 0,0
24.09.2017 09:00:00 12,3 8,6 22 12 - - SSE 0,0
24.09.2017 08:00:00 12,3 8,5 24 13 - - SSE 0,0
24.09.2017 07:00:00 12,1 8,2 31 17 - - S 0,0
24.09.2017 06:00:00 11,5 8,3 24 13 48 26 S 0,0
24.09.2017 05:00:00 12,3 8,8 34 18 46 25 S 0,0
24.09.2017 04:00:00 12,4 8,9 34 18 50 27 S 0,0
24.09.2017 03:00:00 12,4 9,1 34 18 48 26 S 0,0
24.09.2017 02:00:00 13,2 10,6 31 17 - - S 0,0
24.09.2017 01:00:00 13,5 11,3 28 15 - - S 0,0
24.09.2017 00:00:00 13,8 11,6 29 16 - - S 0,0
23.09.2017 23:00:00 13,7 12,1 24 13 - - S 0,0
23.09.2017 22:00:00 13,4 11,8 21 11 - - S 0,0
23.09.2017 21:00:00 13,4 11,8 18 10 - - S 0,0
23.09.2017 20:00:00 13,2 11,7 16 9 - - S 0,0
23.09.2017 19:00:00 14,2 12,5 29 16 46 25 S 0,0
23.09.2017 18:00:00 14,3 12,6 28 15 50 27 S 0,0
23.09.2017 17:00:00 14,7 12,8 34 18 48 26 S 0,0
23.09.2017 16:00:00 14,5 12,6 31 17 50 27 S 0,0
23.09.2017 15:00:00 14,2 12,3 29 16 52 28 S 0,0
23.09.2017 14:00:00 14,3 12,2 37 20 48 26 S 0,0
23.09.2017 13:00:00 14,5 12,1 28 15 - - S 0,0
23.09.2017 12:00:00 14,0 11,5 22 12 - - S 0,0
23.09.2017 11:00:00 13,5 10,7 22 12 46 25 S 0,0
23.09.2017 10:00:00 12,9 10,2 29 16 46 25 S 0,0
23.09.2017 09:00:00 11,9 10,5 26 14 - - S 0,0
23.09.2017 08:00:00 10,3 9,3 11 6 - - SE 0,0
23.09.2017 07:00:00 10,4 9,5 22 12 - - SSE 0,0
23.09.2017 06:00:00 10,7 10,1 21 11 - - SSE 0,0
23.09.2017 05:00:00 11,3 10,8 21 11 - - S 0,0
23.09.2017 04:00:00 11,1 10,7 16 9 - - SSE 0,0
23.09.2017 03:00:00 10,8 10,4 21 11 - - SSE 0,0
23.09.2017 02:00:00 10,6 10,3 18 10 - - S 0,0
23.09.2017 01:00:00 10,6 10,2 16 9 - - SE 0,0
23.09.2017 00:00:00 10,9 10,5 16 9 - - SSE 0,0
22.09.2017 23:00:00 11,2 10,8 16 9 - - SSE 0,0
22.09.2017 22:00:00 11,2 10,7 21 11 - - S 0,0
22.09.2017 21:00:00 11,7 11,0 24 13 - - S 0,0
22.09.2017 20:00:00 11,3 10,4 26 14 - - SSE 0,0
22.09.2017 19:00:00 11,4 10,1 34 18 54 29 SSE 0,0
22.09.2017 18:00:00 11,2 9,6 39 21 54 29 SSE 0,0
22.09.2017 17:00:00 11,5 9,0 35 19 55 30 S 0,0
22.09.2017 16:00:00 12,0 8,2 42 23 57 31 SSE 0,0
22.09.2017 15:00:00 11,9 8,0 41 22 61 33 S 0,0
22.09.2017 14:00:00 12,0 8,1 35 19 55 30 SSE 0,0
22.09.2017 13:00:00 11,3 8,2 35 19 50 27 SSE 0,0
22.09.2017 12:00:00 11,0 8,5 29 16 46 25 SSE 0,0
22.09.2017 11:00:00 10,6 8,8 29 16 - - SSE 0,0
22.09.2017 10:00:00 9,7 8,4 22 12 - - SSE 0,0
22.09.2017 09:00:00 9,4 8,1 15 8 - - SSE 0,0
22.09.2017 08:00:00 8,9 7,4 22 12 - - SSE 0,0
22.09.2017 07:00:00 8,2 7,3 26 14 - - SSE 0,0
22.09.2017 06:00:00 7,9 7,0 24 13 - - SSE 0,0
22.09.2017 05:00:00 7,6 7,0 22 12 - - SSE 0,0
22.09.2017 04:00:00 7,7 6,9 24 13 - - S 0,0
22.09.2017 03:00:00 6,9 6,4 21 11 - - S 0,0
22.09.2017 02:00:00 6,5 5,4 16 9 - - S 0,0
22.09.2017 01:00:00 7,1 5,3 18 10 - - S 0,0
22.09.2017 00:00:00 7,2 5,8 15 8 - - S 0,0
21.09.2017 23:00:00 6,6 5,8 13 7 - - S 0,0
21.09.2017 22:00:00 6,4 5,0 9 5 - - S 0,0
21.09.2017 21:00:00 7,6 5,5 11 6 - - SW 0,0
21.09.2017 20:00:00 8,2 5,9 13 7 - - WSW 0,0
21.09.2017 19:00:00 10,8 6,1 21 11 - - W 0,0
21.09.2017 18:00:00 12,4 5,6 24 13 - - W 0,0
21.09.2017 17:00:00 13,7 7,4 22 12 - - W 0,0
21.09.2017 16:00:00 14,0 7,5 26 14 - - W 0,0
21.09.2017 15:00:00 13,6 8,9 22 12 - - WSW 0,0
21.09.2017 14:00:00 12,3 9,2 24 13 - - W 0,0
21.09.2017 13:00:00 11,4 9,6 22 12 - - W 0,0
21.09.2017 12:00:00 10,4 10,2 16 9 - - W 0,0
21.09.2017 11:00:00 9,3 9,3 21 11 - - W 0,0
21.09.2017 10:00:00 9,4 9,4 13 7 - - SW 0,0
21.09.2017 09:00:00 9,4 9,4 11 6 - - W 0,4
21.09.2017 08:00:00 9,2 9,2 11 6 - - W 1,2
21.09.2017 07:00:00 9,2 9,2 11 6 - - W 1,8
21.09.2017 06:00:00 9,5 9,5 11 6 - - WSW 0,8
21.09.2017 05:00:00 9,6 9,6 8 4 - - SW 0,2
21.09.2017 04:00:00 9,7 9,7 11 6 - - SSW 0,4
21.09.2017 03:00:00 9,7 9,7 13 7 - - SSW 0,2
21.09.2017 02:00:00 9,6 9,6 15 8 - - SW 0,0
21.09.2017 01:00:00 10,1 10,1 15 8 - - WSW 0,0
21.09.2017 00:00:00 10,4 10,4 22 12 - - WSW 0,0
20.09.2017 23:00:00 11,3 11,2 24 13 - - WSW 0,4
20.09.2017 22:00:00 13,8 13,5 31 17 - - S 0,0
20.09.2017 21:00:00 13,5 13,3 26 14 - - S 0,2
20.09.2017 20:00:00 13,3 13,1 26 14 - - S 0,2
20.09.2017 19:00:00 13,3 12,9 26 14 - - S 0,2
20.09.2017 18:00:00 13,6 13,3 26 14 - - S 1,4
20.09.2017 17:00:00 14,0 13,4 21 11 - - S 0,0
20.09.2017 16:00:00 14,2 13,4 28 15 - - S 0,0
20.09.2017 15:00:00 14,6 13,4 26 14 - - S 0,0
20.09.2017 14:00:00 14,0 13,5 24 13 - - S 0,2
20.09.2017 13:00:00 13,2 12,6 29 16 - - SSW 0,0
20.09.2017 12:00:00 13,5 12,2 28 15 - - S 0,0

tt = Température de l'air
td = dewpoint
ff = Vitesse du vent
fx = gusts
dd = Direction du vent
rr = Quantités de précipitations

stations d'obs. à proximité